Time;durP1;ratioP1;P1;durP2;ratioP2;P2;SDS_P1;SDS_P2;PMS_P1;PMS_P2;Temp;Humidity;BMP_temperature;BMP_pressure;BME280_temperature;BME280_humidity;BME280_pressure;Samples;Min_cycle;Max_cycle;Signal;HPM_P1;HPM_P2
2021/01/05 00:01:46;;;;;;;14.23;10.50;;;;;;;4.98;63.27;97373.72;8303351;28;20216;-77
2021/01/05 00:05:48;;;;;;;12.57;11.27;;;;;;;5.33;62.16;97376.84;8301903;28;20432;-77
2021/01/05 00:09:50;;;;;;;12.47;9.83;;;;;;;5.14;63.05;97367.22;8301767;28;20225;-77
2021/01/05 00:13:52;;;;;;;11.40;10.17;;;;;;;5.02;63.26;97363.28;8302028;28;20243;-77
2021/01/05 00:17:54;;;;;;;11.93;10.43;;;;;;;4.94;63.67;97359.28;8302945;28;20597;-77
2021/01/05 00:21:56;;;;;;;12.10;10.17;;;;;;;4.97;63.47;97367.75;8302389;28;20216;-77
2021/01/05 00:25:57;;;;;;;12.10;10.20;;;;;;;4.72;63.58;97365.06;8303513;28;20201;-76
2021/01/05 00:30:02;;;;;;;101.18;55.80;;;;;;;8.20;91.03;97373.59;8302042;28;20451;-77
2021/01/05 00:34:04;;;;;;;13.87;11.60;;;;;;;6.44;64.57;97366.19;8302624;28;20205;-77
2021/01/05 00:38:09;;;;;;;12.87;10.93;;;;;;;5.95;62.20;97357.66;8302923;28;20197;-77
2021/01/05 00:42:11;;;;;;;12.80;10.27;;;;;;;5.71;62.29;97367.88;8304249;28;20201;-76
2021/01/05 00:46:14;;;;;;;12.87;10.33;;;;;;;5.59;62.75;97371.69;8302847;28;20208;-77
2021/01/05 00:50:17;;;;;;;11.93;9.50;;;;;;;5.51;62.39;97373.69;8303062;28;20681;-76
2021/01/05 00:54:18;;;;;;;11.97;10.20;;;;;;;5.41;62.94;97368.03;8302285;28;20200;-77
2021/01/05 00:58:23;;;;;;;12.17;10.70;;;;;;;5.07;63.50;97370.84;8302392;28;20201;-77
2021/01/05 01:02:26;;;;;;;12.63;10.80;;;;;;;5.14;62.99;97379.19;8301943;28;20217;-77
2021/01/05 01:06:27;;;;;;;13.27;11.43;;;;;;;5.11;63.81;97369.88;8302073;28;20236;-76
2021/01/05 01:10:29;;;;;;;12.00;10.80;;;;;;;5.01;64.18;97371.88;8301707;28;20313;-77
2021/01/05 01:14:32;;;;;;;12.87;11.07;;;;;;;5.06;64.15;97375.16;8301734;28;20241;-77
2021/01/05 01:18:34;;;;;;;12.77;11.27;;;;;;;4.90;64.38;97372.22;8301593;28;20208;-77
2021/01/05 01:22:36;;;;;;;12.70;11.33;;;;;;;5.06;64.13;97369.16;8301585;28;20304;-77
2021/01/05 01:26:38;;;;;;;11.93;10.70;;;;;;;4.97;64.29;97372.00;8300610;28;20550;-77
2021/01/05 01:30:40;;;;;;;11.10;9.80;;;;;;;5.04;64.30;97376.06;8299613;28;20225;-77
2021/01/05 01:34:42;;;;;;;11.90;10.60;;;;;;;4.95;64.41;97381.50;8301695;28;20205;-77
2021/01/05 01:38:47;;;;;;;13.03;10.80;;;;;;;5.02;64.10;97375.28;8300171;28;20200;-76
2021/01/05 01:42:49;;;;;;;12.67;10.90;;;;;;;4.92;64.41;97377.31;8300284;28;20201;-76
2021/01/05 01:46:53;;;;;;;12.80;11.17;;;;;;;4.90;64.49;97371.38;8299620;28;20201;-76
2021/01/05 01:50:55;;;;;;;12.10;10.80;;;;;;;4.92;64.08;97366.22;8299784;28;20229;-77
2021/01/05 01:55:22;;;;;;;12.07;10.87;;;;;;;4.88;64.51;97361.16;8299588;28;20208;-76
2021/01/05 01:59:41;;;;;;;12.43;10.87;;;;;;;4.90;64.08;97361.13;8296257;28;20205;-77
2021/01/05 02:04:00;;;;;;;12.00;10.70;;;;;;;4.96;64.35;97353.22;8300109;28;20228;-77
2021/01/05 02:08:16;;;;;;;12.10;10.80;;;;;;;4.94;64.26;97356.72;8299776;28;20200;-77
2021/01/05 02:12:24;;;;;;;11.80;10.53;;;;;;;5.00;64.11;97361.66;8299222;28;20276;-77
2021/01/05 02:16:33;;;;;;;12.60;11.40;;;;;;;5.29;63.19;97360.72;8298563;28;20919;-76
2021/01/05 02:20:38;;;;;;;12.43;10.97;;;;;;;4.92;64.35;97359.34;8298821;28;20599;-76
2021/01/05 02:24:43;;;;;;;13.07;11.07;;;;;;;4.96;64.42;97353.22;8298881;28;20209;-77
2021/01/05 02:28:50;;;;;;;11.53;10.37;;;;;;;4.87;64.66;97353.50;8298303;28;20201;-77
2021/01/05 02:32:56;;;;;;;12.57;11.00;;;;;;;4.77;64.90;97347.81;8303503;28;20200;-77
2021/01/05 02:37:16;;;;;;;11.30;10.10;;;;;;;4.97;64.89;97347.22;8304380;28;20220;-78
2021/01/05 02:41:28;;;;;;;12.07;10.77;;;;;;;4.90;64.59;97345.72;8305065;28;20216;-78
2021/01/05 02:45:34;;;;;;;12.30;10.57;;;;;;;4.79;65.12;97352.91;8304755;28;20765;-78
2021/01/05 02:49:46;;;;;;;11.83;10.63;;;;;;;4.86;64.60;97339.00;8304659;28;20221;-78
2021/01/05 02:54:21;;;;;;;12.40;10.60;;;;;;;4.81;64.76;97333.19;8304160;28;20205;-77
2021/01/05 02:58:48;;;;;;;13.53;11.67;;;;;;;4.88;64.82;97327.81;8304228;28;20260;-78
2021/01/05 03:03:17;;;;;;;11.93;10.50;;;;;;;4.63;65.12;97329.47;8307517;28;20558;-79
2021/01/05 03:07:21;;;;;;;12.60;10.97;;;;;;;4.78;64.92;97325.56;8293337;28;20205;-79
2021/01/05 03:11:30;;;;;;;12.73;10.43;;;;;;;4.77;64.96;97317.03;8303538;28;20232;-79
2021/01/05 03:15:42;;;;;;;11.30;10.10;;;;;;;4.81;64.67;97326.31;8304579;28;20241;-79
2021/01/05 03:19:49;;;;;;;12.67;10.50;;;;;;;4.76;65.03;97327.34;8303638;28;20190;-78
2021/01/05 03:23:51;;;;;;;11.83;10.47;;;;;;;4.89;64.81;97318.38;8303185;28;20208;-78
2021/01/05 03:27:55;;;;;;;11.97;10.70;;;;;;;4.87;64.56;97322.72;8302890;28;20681;-78
2021/01/05 03:32:02;;;;;;;11.63;10.33;;;;;;;5.00;64.21;97329.13;8302205;28;20235;-78
2021/01/05 03:36:05;;;;;;;11.70;10.20;;;;;;;4.90;64.61;97332.88;8303040;28;20213;-79
2021/01/05 03:40:09;;;;;;;11.43;10.20;;;;;;;4.94;64.56;97326.78;8302274;28;20209;-78
2021/01/05 03:44:11;;;;;;;11.77;10.53;;;;;;;4.84;64.23;97322.84;8301445;28;20205;-78
2021/01/05 03:48:13;;;;;;;11.33;10.13;;;;;;;4.92;64.58;97330.28;8301515;28;20212;-78
2021/01/05 03:52:15;;;;;;;13.13;10.03;;;;;;;4.88;64.46;97332.94;8302557;28;20308;-79
2021/01/05 03:56:17;;;;;;;15.53;9.90;;;;;;;5.01;64.66;97335.13;8301430;28;20205;-79
2021/01/05 04:00:25;;;;;;;11.20;9.50;;;;;;;4.94;64.85;97329.34;8301743;28;20208;-78
2021/01/05 04:04:28;;;;;;;10.90;9.70;;;;;;;4.94;64.42;97331.06;8301203;28;20247;-79
2021/01/05 04:08:30;;;;;;;11.17;9.73;;;;;;;4.99;64.75;97329.19;8301618;28;20208;-79
2021/01/05 04:12:32;;;;;;;11.47;10.13;;;;;;;4.94;64.71;97324.19;8300548;28;20229;-78
2021/01/05 04:16:34;;;;;;;11.90;10.40;;;;;;;4.82;64.98;97322.03;8301245;28;20233;-79
2021/01/05 04:20:36;;;;;;;11.60;10.20;;;;;;;4.97;64.73;97330.94;8301281;28;20231;-78
2021/01/05 04:24:38;;;;;;;11.33;9.50;;;;;;;4.91;64.57;97331.97;8301237;28;20198;-78
2021/01/05 04:28:40;;;;;;;14.07;12.23;;;;;;;4.61;66.18;97326.13;8301424;28;20209;-79
2021/01/05 04:32:42;;;;;;;16.17;13.63;;;;;;;4.68;65.37;97333.56;8308160;28;20229;-79
2021/01/05 04:36:44;;;;;;;16.90;14.23;;;;;;;4.77;65.43;97331.59;8307133;28;20189;-78
2021/01/05 04:40:47;;;;;;;15.47;10.70;;;;;;;4.79;65.22;97334.94;8302533;28;20201;-79
2021/01/05 04:44:55;;;;;;;12.40;9.90;;;;;;;4.81;65.66;97335.75;8303401;28;20220;-79
2021/01/05 04:49:02;;;;;;;10.70;9.60;;;;;;;4.93;65.10;97337.06;8301697;28;20197;-79
2021/01/05 04:53:13;;;;;;;11.17;9.80;;;;;;;5.01;64.91;97345.38;8300228;28;20248;-79
2021/01/05 04:57:23;;;;;;;13.87;10.63;;;;;;;5.04;64.27;97343.53;8300318;28;20652;-78
2021/01/05 05:01:27;;;;;;;12.10;9.70;;;;;;;4.94;64.65;97342.16;8300610;28;20208;-78
2021/01/05 05:05:40;;;;;;;12.07;9.93;;;;;;;4.94;64.71;97344.72;8300390;28;20232;-79
2021/01/05 05:09:51;;;;;;;11.57;9.63;;;;;;;4.98;64.69;97342.91;8299981;28;20225;-79
2021/01/05 05:14:00;;;;;;;10.20;8.93;;;;;;;4.95;65.09;97348.13;8299346;28;20228;-79
2021/01/05 05:18:09;;;;;;;11.77;9.40;;;;;;;4.88;65.18;97356.03;8300637;28;20233;-79
2021/01/05 05:22:14;;;;;;;10.03;8.97;;;;;;;4.95;64.83;97354.13;8303715;28;20202;-79
2021/01/05 05:26:21;;;;;;;11.50;9.17;;;;;;;4.93;64.58;97362.72;8299941;28;20193;-78
2021/01/05 05:30:33;;;;;;;10.60;9.00;;;;;;;4.93;64.59;97360.16;8299461;28;20661;-77
2021/01/05 05:34:39;;;;;;;12.83;9.07;;;;;;;4.94;64.73;97359.28;8288126;28;20200;-78
2021/01/05 05:39:05;;;;;;;11.07;9.43;;;;;;;4.86;64.84;97362.94;8298806;28;20578;-77
2021/01/05 05:43:14;;;;;;;8.77;7.83;;;;;;;4.88;64.52;97357.75;8276963;28;20201;-77
2021/01/05 05:47:21;;;;;;;10.87;8.60;;;;;;;5.01;64.77;97361.63;8294898;28;20567;-77
2021/01/05 05:51:29;;;;;;;10.33;8.40;;;;;;;5.03;64.54;97375.25;8299588;28;20652;-77
2021/01/05 05:55:43;;;;;;;11.27;9.10;;;;;;;5.03;64.81;97376.97;8299030;28;20193;-79
2021/01/05 05:59:48;;;;;;;10.67;8.57;;;;;;;5.05;64.44;97373.47;8300165;28;20296;-79
2021/01/05 06:03:51;;;;;;;10.13;8.70;;;;;;;5.06;64.29;97376.84;8301462;28;20553;-79
2021/01/05 06:07:53;;;;;;;9.40;8.33;;;;;;;4.93;64.69;97367.88;8307094;28;20197;-79
2021/01/05 06:11:55;;;;;;;11.20;8.00;;;;;;;4.95;64.81;97378.91;8308289;28;20239;-79
2021/01/05 06:15:57;;;;;;;10.37;8.30;;;;;;;4.91;64.94;97378.16;8275144;28;20226;-79
2021/01/05 06:20:00;;;;;;;13.67;9.80;;;;;;;4.82;64.95;97384.44;8306940;28;20198;-79
2021/01/05 06:24:02;;;;;;;10.97;9.10;;;;;;;4.81;65.10;97377.63;8307708;28;20548;-79
2021/01/05 06:28:04;;;;;;;10.83;8.57;;;;;;;4.81;64.53;97381.91;8307325;28;20218;-79
2021/01/05 06:32:06;;;;;;;11.00;8.30;;;;;;;4.87;65.02;97389.41;8307663;28;20256;-78
2021/01/05 06:36:09;;;;;;;10.53;8.00;;;;;;;4.64;65.63;97392.69;8303845;28;20208;-78
2021/01/05 06:40:12;;;;;;;10.50;8.37;;;;;;;4.80;64.43;97401.63;8303767;28;20201;-78
2021/01/05 06:44:14;;;;;;;8.53;7.63;;;;;;;4.68;65.41;97399.41;8303677;28;20204;-78
2021/01/05 06:48:16;;;;;;;10.20;8.03;;;;;;;4.67;65.78;97401.13;8303048;28;20209;-79
2021/01/05 06:52:19;;;;;;;10.70;7.77;;;;;;;4.59;65.58;97399.66;8303529;28;20228;-78
2021/01/05 06:56:20;;;;;;;8.67;7.77;;;;;;;4.59;65.79;97405.66;8303174;28;20284;-77
2021/01/05 07:00:26;;;;;;;8.80;7.50;;;;;;;4.94;65.13;97405.47;8302911;28;20300;-78
2021/01/05 07:04:28;;;;;;;9.03;7.70;;;;;;;4.79;65.58;97407.63;8302990;28;20221;-78
2021/01/05 07:08:31;;;;;;;9.00;7.77;;;;;;;4.73;65.55;97412.09;8286385;28;20193;-78
2021/01/05 07:12:33;;;;;;;10.17;7.80;;;;;;;4.83;65.27;97416.91;8302743;28;20233;-78
2021/01/05 07:16:35;;;;;;;8.60;7.53;;;;;;;4.96;64.70;97419.09;8302488;28;20283;-79
2021/01/05 07:20:36;;;;;;;8.30;7.23;;;;;;;5.00;64.64;97421.50;8302525;28;20209;-79
2021/01/05 07:24:39;;;;;;;7.93;7.13;;;;;;;5.06;64.42;97425.63;8302576;28;20193;-79
2021/01/05 07:28:41;;;;;;;9.33;7.93;;;;;;;5.07;64.58;97419.63;8302220;28;20201;-78
2021/01/05 07:32:47;;;;;;;8.30;7.47;;;;;;;5.05;64.59;97421.41;8301642;28;20296;-78
2021/01/05 07:36:54;;;;;;;7.87;7.07;;;;;;;5.06;64.60;97423.91;8301358;28;20209;-78
2021/01/05 07:40:57;;;;;;;10.03;7.50;;;;;;;5.00;64.85;97429.22;8301795;28;20243;-78
2021/01/05 07:44:59;;;;;;;9.20;7.67;;;;;;;5.15;64.08;97427.91;8301884;28;20205;-78
2021/01/05 07:49:01;;;;;;;10.43;7.77;;;;;;;5.17;64.53;97433.00;8269505;28;20202;-78
2021/01/05 07:53:03;;;;;;;8.37;6.60;;;;;;;5.16;64.59;97434.75;8268840;28;20233;-79
2021/01/05 07:57:23;;;;;;;9.13;7.47;;;;;;;5.06;64.75;97439.31;8284754;28;20256;-79
2021/01/05 08:01:30;;;;;;;7.80;6.73;;;;;;;5.08;64.20;97436.69;8290374;28;20226;-78
2021/01/05 08:05:32;;;;;;;8.67;6.80;;;;;;;5.02;64.50;97436.88;8270570;28;20186;-80
2021/01/05 08:09:34;;;;;;;11.33;6.63;;;;;;;5.12;64.41;97437.44;8287308;28;20221;-79
2021/01/05 08:13:36;;;;;;;8.43;6.77;;;;;;;5.17;64.40;97440.69;8306938;28;20245;-78
2021/01/05 08:17:38;;;;;;;7.87;6.57;;;;;;;5.16;64.71;97439.00;8303645;28;20220;-78
2021/01/05 08:21:40;;;;;;;9.17;7.33;;;;;;;5.16;64.38;97442.44;8302294;28;20695;-79
2021/01/05 08:25:42;;;;;;;8.53;6.83;;;;;;;5.21;64.21;97440.53;8303037;28;20217;-78
2021/01/05 08:29:45;;;;;;;7.33;6.63;;;;;;;5.20;64.17;97449.16;8305438;28;20209;-78
2021/01/05 08:33:47;;;;;;;8.23;7.40;;;;;;;5.26;63.82;97458.41;8306249;28;20645;-78
2021/01/05 08:37:48;;;;;;;7.73;6.67;;;;;;;5.31;63.89;97453.09;8309622;28;20201;-80
2021/01/05 08:41:53;;;;;;;11.80;8.03;;;;;;;5.29;64.27;97454.00;8313716;28;20200;-80
2021/01/05 08:45:57;;;;;;;11.27;7.83;;;;;;;5.34;64.16;97453.84;8314367;28;20193;-79
2021/01/05 08:49:59;;;;;;;8.17;6.93;;;;;;;5.36;64.27;97448.66;8309913;28;20201;-79
2021/01/05 08:54:00;;;;;;;6.90;6.20;;;;;;;5.35;64.30;97454.69;8311208;28;20212;-78
2021/01/05 08:58:02;;;;;;;7.50;6.57;;;;;;;5.40;64.01;97461.34;8311106;28;20193;-80
2021/01/05 09:02:06;;;;;;;7.67;6.33;;;;;;;5.39;63.97;97459.69;8316729;28;20653;-80
2021/01/05 09:06:08;;;;;;;7.03;6.30;;;;;;;5.39;63.87;97464.81;8316389;28;20193;-80
2021/01/05 09:10:15;;;;;;;6.60;5.80;;;;;;;5.37;63.98;97478.56;8310560;28;20225;-79
2021/01/05 09:14:17;;;;;;;6.83;6.13;;;;;;;5.27;64.80;97465.19;8306122;28;20233;-79
2021/01/05 09:18:20;;;;;;;6.50;5.90;;;;;;;5.40;64.00;97470.78;8304793;28;20197;-79
2021/01/05 09:22:23;;;;;;;7.53;6.47;;;;;;;5.35;63.97;97470.09;8278164;28;20201;-79
2021/01/05 09:26:26;;;;;;;7.20;6.50;;;;;;;5.40;64.29;97461.34;8306826;28;20196;-80
2021/01/05 09:30:28;;;;;;;7.90;6.43;;;;;;;5.48;64.22;97469.69;8314471;28;20228;-80
2021/01/05 09:34:31;;;;;;;6.83;6.17;;;;;;;5.47;63.86;97465.41;8315688;28;20204;-80
2021/01/05 09:38:38;;;;;;;6.63;5.93;;;;;;;5.58;63.95;97465.06;8316221;28;20255;-79
2021/01/05 09:42:40;;;;;;;6.70;6.00;;;;;;;5.51;63.99;97453.31;8328325;28;20201;-81
2021/01/05 09:46:48;;;;;;;6.97;6.27;;;;;;;5.40;64.19;97453.66;8332856;28;20193;-80
2021/01/05 09:50:51;;;;;;;8.37;6.37;;;;;;;5.44;64.28;97452.66;8323296;28;20707;-80
2021/01/05 09:54:54;;;;;;;8.50;6.40;;;;;;;5.65;64.25;97455.44;8321798;28;20204;-81
2021/01/05 09:58:56;;;;;;;7.23;6.00;;;;;;;5.64;63.90;97451.19;8322274;28;20241;-80
2021/01/05 10:02:59;;;;;;;8.03;6.27;;;;;;;5.70;63.85;97445.00;8323662;28;20205;-80
2021/01/05 10:07:01;;;;;;;6.00;5.40;;;;;;;5.75;63.28;97448.25;8316973;28;20284;-80
2021/01/05 10:11:03;;;;;;;6.23;5.57;;;;;;;5.76;63.49;97450.78;8319509;28;20274;-79
2021/01/05 10:15:06;;;;;;;6.60;5.43;;;;;;;5.72;63.53;97446.63;8318708;28;20240;-79
2021/01/05 10:19:11;;;;;;;9.13;5.93;;;;;;;5.61;64.51;97444.41;8322142;28;20201;-80
2021/01/05 10:23:14;;;;;;;6.70;5.57;;;;;;;5.75;63.96;97443.97;8319521;28;20201;-79
2021/01/05 10:27:16;;;;;;;6.30;5.70;;;;;;;5.87;64.09;97443.56;8315018;28;20212;-79
2021/01/05 10:31:18;;;;;;;6.97;5.90;;;;;;;5.81;63.78;97442.94;8311444;28;20279;-77
2021/01/05 10:35:21;;;;;;;6.87;6.17;;;;;;;5.83;64.32;97429.13;8310648;28;20208;-79
2021/01/05 10:39:24;;;;;;;6.90;6.13;;;;;;;5.83;64.46;97426.56;8309055;28;20201;-79
2021/01/05 10:43:26;;;;;;;6.70;5.83;;;;;;;5.87;63.97;97425.56;8311863;28;20202;-78
2021/01/05 10:47:28;;;;;;;6.57;5.80;;;;;;;5.99;63.89;97429.47;8311423;28;20641;-79
2021/01/05 10:51:30;;;;;;;7.60;6.67;;;;;;;5.96;63.99;97427.03;8309470;28;20581;-79
2021/01/05 10:55:32;;;;;;;7.37;6.10;;;;;;;6.00;63.64;97423.44;8306739;28;20660;-78
2021/01/05 10:59:35;;;;;;;8.07;6.50;;;;;;;5.93;64.01;97418.53;8305891;28;20193;-78
2021/01/05 11:03:37;;;;;;;8.77;7.87;;;;;;;5.86;63.75;97417.91;8304923;28;20213;-78
2021/01/05 11:07:38;;;;;;;8.30;7.50;;;;;;;5.92;64.00;97420.28;8305298;28;20197;-79
2021/01/05 11:11:41;;;;;;;7.90;7.07;;;;;;;5.87;63.74;97417.03;8304629;28;20225;-78
2021/01/05 11:15:42;;;;;;;8.67;6.93;;;;;;;5.75;64.35;97418.28;8295189;28;20229;-78
2021/01/05 11:19:45;;;;;;;8.07;7.10;;;;;;;5.70;64.53;97419.31;8305888;28;20197;-78
2021/01/05 11:23:46;;;;;;;8.97;7.40;;;;;;;5.89;63.97;97417.81;8306028;28;20201;-78
2021/01/05 11:27:50;;;;;;;7.47;6.67;;;;;;;6.00;64.23;97414.91;8304870;28;20223;-78
2021/01/05 11:31:53;;;;;;;9.97;7.17;;;;;;;6.01;63.93;97409.69;8305596;28;20228;-78
2021/01/05 11:35:56;;;;;;;8.40;7.60;;;;;;;6.05;64.44;97402.72;8305265;28;20200;-78
2021/01/05 11:39:57;;;;;;;10.20;9.10;;;;;;;6.01;64.03;97407.13;8304032;28;20193;-78
2021/01/05 11:44:00;;;;;;;22.23;20.00;;;;;;;6.14;64.25;97394.69;8303794;28;20201;-78
2021/01/05 11:48:03;;;;;;;14.83;13.30;;;;;;;6.14;63.67;97391.28;8305220;28;20226;-78
2021/01/05 11:52:05;;;;;;;13.50;12.10;;;;;;;6.18;64.54;97395.41;8304469;28;20224;-78
2021/01/05 11:56:06;;;;;;;11.77;10.57;;;;;;;6.03;64.33;97391.66;8304056;28;20198;-78
2021/01/05 12:00:11;;;;;;;13.33;11.90;;;;;;;6.23;64.39;97389.22;8304210;28;20204;-79
2021/01/05 12:04:13;;;;;;;13.20;10.00;;;;;;;6.39;64.10;97379.19;8306159;28;20201;-78
2021/01/05 12:08:14;;;;;;;9.87;8.87;;;;;;;6.45;63.86;97373.84;8304942;28;20201;-78
2021/01/05 12:12:16;;;;;;;11.83;9.00;;;;;;;6.47;63.45;97373.75;8303128;28;20232;-78
2021/01/05 12:16:26;;;;;;;11.83;9.60;;;;;;;6.70;63.33;97380.66;8304197;28;20577;-77
2021/01/05 12:20:28;;;;;;;12.20;10.67;;;;;;;6.92;63.43;97370.34;8304025;28;20209;-78
2021/01/05 12:24:32;;;;;;;13.57;9.97;;;;;;;7.01;63.48;97369.97;8303946;28;20544;-78
2021/01/05 12:28:34;;;;;;;11.80;9.73;;;;;;;7.02;63.32;97369.06;8303555;28;20202;-77
2021/01/05 12:32:36;;;;;;;12.37;10.70;;;;;;;7.04;63.14;97369.88;8305800;28;20256;-78
2021/01/05 12:36:39;;;;;;;13.13;11.20;;;;;;;7.04;62.79;97364.72;8303895;28;20193;-79
2021/01/05 12:40:41;;;;;;;12.13;10.90;;;;;;;7.10;63.17;97368.78;8304713;28;20667;-78
2021/01/05 12:44:43;;;;;;;13.63;11.27;;;;;;;7.00;63.54;97355.41;8305409;28;20212;-78
2021/01/05 12:48:46;;;;;;;13.27;11.10;;;;;;;6.78;63.68;97367.47;8311611;28;20205;-78
2021/01/05 12:53:05;;;;;;;15.17;11.70;;;;;;;6.80;63.55;97356.22;8300728;28;20722;-77
2021/01/05 12:57:08;;;;;;;13.60;11.87;;;;;;;6.79;63.94;97357.09;8301851;28;20193;-77
2021/01/05 13:01:10;;;;;;;13.37;11.17;;;;;;;6.64;64.31;97355.13;8302635;28;20214;-77
2021/01/05 13:05:14;;;;;;;12.40;11.03;;;;;;;6.79;63.99;97366.56;8302180;28;20672;-77
2021/01/05 13:09:16;;;;;;;12.60;10.87;;;;;;;6.67;64.02;97365.31;8301686;28;20620;-78
2021/01/05 13:13:17;;;;;;;12.73;11.27;;;;;;;6.81;64.16;97359.63;8301365;28;20244;-77
2021/01/05 13:17:19;;;;;;;15.03;12.53;;;;;;;6.75;63.35;97365.84;8300502;28;20633;-77
2021/01/05 13:21:27;;;;;;;14.33;11.90;;;;;;;6.76;63.25;97359.81;8301352;28;20217;-77
2021/01/05 13:25:28;;;;;;;12.93;11.53;;;;;;;6.44;63.53;97366.19;8301331;28;20197;-77
2021/01/05 13:29:32;;;;;;;13.50;12.10;;;;;;;6.36;63.06;97361.31;8300357;28;20201;-77
2021/01/05 13:33:33;;;;;;;16.13;13.97;;;;;;;6.44;63.33;97366.19;8301261;28;20665;-77
2021/01/05 13:37:36;;;;;;;15.30;11.57;;;;;;;6.37;63.12;97372.44;8301734;28;20201;-77
2021/01/05 13:41:38;;;;;;;52.57;14.00;;;;;;;8.63;89.22;97375.22;8304073;28;20565;-78
2021/01/05 13:45:40;;;;;;;22.13;12.03;;;;;;;9.70;70.40;97372.63;8311085;28;20220;-78
2021/01/05 13:49:43;;;;;;;17.13;10.77;;;;;;;10.35;59.81;97375.34;8306882;28;20204;-79
2021/01/05 13:53:45;;;;;;;17.10;13.30;;;;;;;9.33;56.01;97381.38;8302721;28;20224;-77
2021/01/05 13:57:47;;;;;;;16.30;12.13;;;;;;;8.08;58.08;97378.47;8299795;28;20204;-76
2021/01/05 14:01:53;;;;;;;17.50;13.27;;;;;;;7.68;58.74;97378.44;8299909;28;20197;-76
2021/01/05 14:05:56;;;;;;;13.43;12.03;;;;;;;7.19;60.93;97381.28;8300615;28;20578;-76
2021/01/05 14:09:59;;;;;;;14.53;12.63;;;;;;;7.00;60.37;97398.34;8301996;28;20209;-77
2021/01/05 14:14:00;;;;;;;14.27;12.77;;;;;;;6.72;60.79;97391.72;8302966;28;20240;-77
2021/01/05 14:18:03;;;;;;;15.53;12.13;;;;;;;6.54;60.77;97388.06;8302042;28;20252;-78
2021/01/05 14:22:04;;;;;;;14.17;12.17;;;;;;;6.55;61.30;97399.19;8299637;28;20208;-78
2021/01/05 14:26:07;;;;;;;16.07;12.87;;;;;;;6.68;60.87;97400.41;8301274;28;20212;-77
2021/01/05 14:30:10;;;;;;;16.20;13.17;;;;;;;6.61;61.14;97401.56;8305398;28;20212;-78
2021/01/05 14:34:11;;;;;;;32.23;23.83;;;;;;;6.87;62.22;97405.69;8306621;28;20573;-76
2021/01/05 14:38:13;;;;;;;19.23;14.17;;;;;;;6.68;61.24;97397.00;8307150;28;20220;-76
2021/01/05 14:42:16;;;;;;;16.00;12.93;;;;;;;6.67;61.14;97397.94;8306158;28;20267;-77
2021/01/05 14:46:20;;;;;;;15.57;12.87;;;;;;;6.69;61.37;97409.00;8306485;28;20209;-77
2021/01/05 14:50:22;;;;;;;15.67;13.70;;;;;;;6.61;61.21;97411.84;8306139;28;20210;-77
2021/01/05 14:54:24;;;;;;;27.57;13.23;;;;;;;6.61;61.33;97410.13;8305251;28;20766;-76
2021/01/05 14:58:34;;;;;;;30.90;14.80;;;;;;;6.49;61.06;97407.97;8305313;28;20204;-79
2021/01/05 15:02:35;;;;;;;31.92;13.80;;;;;;;6.50;60.88;97419.13;8308105;28;20912;-77
2021/01/05 15:06:38;;;;;;;14.63;11.37;;;;;;;6.21;62.47;97424.44;8304846;28;20232;-77
2021/01/05 15:10:39;;;;;;;13.00;10.17;;;;;;;6.29;61.89;97421.59;8305824;28;20552;-78
2021/01/05 15:14:42;;;;;;;15.23;11.30;;;;;;;6.35;62.20;97426.50;8307635;28;20247;-77
2021/01/05 15:18:44;;;;;;;16.53;12.83;;;;;;;6.40;61.54;97427.19;8305673;28;20200;-78
2021/01/05 15:22:46;;;;;;;11.37;9.43;;;;;;;6.29;61.31;97423.31;8303513;28;20197;-77
2021/01/05 15:26:47;;;;;;;10.77;9.67;;;;;;;6.14;62.08;97419.56;8305150;28;20201;-77
2021/01/05 15:30:51;;;;;;;12.10;9.03;;;;;;;6.19;61.77;97423.66;8303477;28;20228;-77
2021/01/05 15:34:52;;;;;;;9.27;8.27;;;;;;;6.10;61.70;97420.56;8305488;28;20209;-77
2021/01/05 15:38:54;;;;;;;9.43;8.43;;;;;;;5.99;61.82;97423.50;8304989;28;20563;-77
2021/01/05 15:42:56;;;;;;;9.03;8.13;;;;;;;6.07;61.65;97426.63;8306060;28;20205;-78
2021/01/05 15:47:00;;;;;;;11.23;9.10;;;;;;;6.17;60.99;97427.16;8303737;28;20213;-78
2021/01/05 15:51:02;;;;;;;10.43;9.33;;;;;;;5.95;61.30;97421.91;8297754;28;20247;-78
2021/01/05 15:55:05;;;;;;;9.87;8.87;;;;;;;5.91;61.27;97428.88;8299377;28;20212;-77
2021/01/05 15:59:07;;;;;;;9.30;8.23;;;;;;;5.67;62.14;97426.25;8304331;28;20213;-78
2021/01/05 16:03:09;;;;;;;9.10;7.27;;;;;;;5.85;61.29;97429.91;8303575;28;20206;-78
2021/01/05 16:07:13;;;;;;;9.97;8.50;;;;;;;5.83;61.61;97433.44;8302722;28;20212;-76
2021/01/05 16:11:15;;;;;;;13.73;11.20;;;;;;;5.83;61.54;97430.88;8302518;28;20232;-77
2021/01/05 16:15:18;;;;;;;9.50;8.43;;;;;;;5.50;62.37;97423.38;8302791;28;20256;-77
2021/01/05 16:19:20;;;;;;;9.83;8.87;;;;;;;5.81;61.66;97418.06;8303272;28;20236;-77
2021/01/05 16:23:22;;;;;;;12.93;10.10;;;;;;;5.64;62.06;97413.50;8288688;28;20217;-78
2021/01/05 16:27:24;;;;;;;10.07;8.77;;;;;;;5.86;61.59;97412.75;8281615;28;20198;-77
2021/01/05 16:31:25;;;;;;;10.90;9.80;;;;;;;5.80;61.97;97413.81;8270049;28;20620;-77
2021/01/05 16:35:28;;;;;;;10.13;8.73;;;;;;;5.79;62.23;97419.84;8292203;28;20213;-77
2021/01/05 16:39:31;;;;;;;10.57;8.80;;;;;;;5.82;62.87;97418.91;8303359;28;20656;-78
2021/01/05 16:43:33;;;;;;;8.83;7.53;;;;;;;5.81;61.65;97417.22;8302422;28;20208;-77
2021/01/05 16:47:35;;;;;;;9.83;7.80;;;;;;;5.51;62.29;97416.53;8290417;28;20578;-77
2021/01/05 16:51:38;;;;;;;12.93;8.77;;;;;;;5.57;62.39;97424.84;8284340;28;20217;-77
2021/01/05 16:55:41;;;;;;;9.67;8.10;;;;;;;5.57;62.33;97427.41;8290816;28;20197;-77
2021/01/05 16:59:43;;;;;;;9.80;8.50;;;;;;;5.55;62.25;97428.38;8301063;28;20284;-77
2021/01/05 17:03:46;;;;;;;10.33;8.60;;;;;;;5.58;62.02;97433.38;8301322;28;20197;-77
2021/01/05 17:07:49;;;;;;;10.03;8.80;;;;;;;5.60;62.32;97422.19;8302288;28;20209;-77
2021/01/05 17:11:51;;;;;;;10.83;9.67;;;;;;;5.50;62.42;97420.81;8302516;28;20248;-77
2021/01/05 17:15:53;;;;;;;9.67;8.67;;;;;;;5.66;62.09;97419.41;8301910;28;20232;-78
2021/01/05 17:19:54;;;;;;;11.80;9.00;;;;;;;5.37;62.63;97422.09;8302243;28;20196;-78
2021/01/05 17:23:58;;;;;;;10.20;8.63;;;;;;;5.36;62.70;97423.81;8301437;28;20197;-78
2021/01/05 17:28:00;;;;;;;11.23;9.73;;;;;;;5.40;61.79;97422.84;8301238;28;20224;-78
2021/01/05 17:32:01;;;;;;;13.90;10.83;;;;;;;5.40;61.95;97427.13;8300800;28;20229;-78
2021/01/05 17:36:04;;;;;;;14.73;11.43;;;;;;;5.40;61.76;97417.69;8300821;28;20232;-77
2021/01/05 17:40:09;;;;;;;12.40;10.60;;;;;;;5.39;62.19;97422.91;8300803;28;20340;-77
2021/01/05 17:44:11;;;;;;;13.73;10.60;;;;;;;5.20;62.11;97417.50;8301732;28;20255;-77
2021/01/05 17:48:13;;;;;;;11.90;10.23;;;;;;;5.29;62.37;97412.94;8302056;28;20559;-77
2021/01/05 17:52:15;;;;;;;14.73;12.43;;;;;;;5.37;62.01;97422.94;8302093;28;20256;-77
2021/01/05 17:56:18;;;;;;;15.30;13.70;;;;;;;5.28;62.01;97421.50;8300199;28;20201;-77
2021/01/05 18:00:20;;;;;;;12.57;11.03;;;;;;;5.39;62.16;97421.16;8300425;28;20220;-78
2021/01/05 18:04:22;;;;;;;12.97;10.57;;;;;;;5.26;62.26;97413.00;8307429;28;20534;-77
2021/01/05 18:08:24;;;;;;;12.23;9.87;;;;;;;5.34;61.95;97428.16;8308830;28;20569;-78
2021/01/05 18:12:26;;;;;;;10.93;9.60;;;;;;;5.46;62.33;97424.38;8306749;28;20231;-76
2021/01/05 18:16:29;;;;;;;13.23;10.40;;;;;;;5.40;61.95;97416.88;8305434;28;20233;-77
2021/01/05 18:20:32;;;;;;;11.27;10.03;;;;;;;5.33;61.75;97434.22;8306336;28;20601;-76
2021/01/05 18:24:34;;;;;;;11.37;10.03;;;;;;;5.35;61.58;97424.72;8305812;28;20209;-77
2021/01/05 18:28:37;;;;;;;12.37;10.67;;;;;;;5.40;60.97;97420.25;8289540;28;20228;-77
2021/01/05 18:32:39;;;;;;;15.20;12.23;;;;;;;5.42;61.58;97417.66;8274016;28;20226;-78
2021/01/05 18:36:41;;;;;;;19.70;15.13;;;;;;;5.48;61.21;97412.31;8274561;28;20209;-78
2021/01/05 18:40:45;;;;;;;11.83;10.33;;;;;;;5.46;60.87;97420.09;8280479;28;20644;-78
2021/01/05 18:44:47;;;;;;;12.20;10.23;;;;;;;5.52;60.85;97423.31;8276259;28;20206;-77
2021/01/05 18:48:49;;;;;;;12.10;10.47;;;;;;;5.36;61.22;97415.28;8293695;28;20205;-77
2021/01/05 18:52:51;;;;;;;11.70;10.03;;;;;;;5.20;61.27;97418.34;8298189;28;20229;-77
2021/01/05 18:56:54;;;;;;;11.93;10.20;;;;;;;5.28;60.82;97425.81;8290236;28;20210;-77
2021/01/05 19:00:57;;;;;;;10.87;9.50;;;;;;;5.45;60.67;97425.28;8294240;28;20197;-78
2021/01/05 19:04:59;;;;;;;11.43;9.90;;;;;;;5.44;60.63;97424.41;8305556;28;20214;-77